sensor_id;sensor_type;location;lat;lon;timestamp;P1;durP1;ratioP1;P2;durP2;ratioP2
12306;SDS011;6216;51.146;7.008;2022-11-24T00:01:12;10.73;;;2.80;;
12306;SDS011;6216;51.146;7.008;2022-11-24T00:03:41;10.10;;;2.90;;
12306;SDS011;6216;51.146;7.008;2022-11-24T00:06:10;11.23;;;3.33;;
12306;SDS011;6216;51.146;7.008;2022-11-24T00:08:41;15.13;;;3.40;;
12306;SDS011;6216;51.146;7.008;2022-11-24T00:11:11;10.93;;;3.20;;
12306;SDS011;6216;51.146;7.008;2022-11-24T00:13:41;8.87;;;2.33;;
12306;SDS011;6216;51.146;7.008;2022-11-24T00:16:10;15.93;;;3.73;;
12306;SDS011;6216;51.146;7.008;2022-11-24T00:18:42;11.70;;;3.23;;
12306;SDS011;6216;51.146;7.008;2022-11-24T00:21:13;8.37;;;2.53;;
12306;SDS011;6216;51.146;7.008;2022-11-24T00:23:43;7.20;;;2.70;;
12306;SDS011;6216;51.146;7.008;2022-11-24T00:26:12;12.67;;;3.43;;
12306;SDS011;6216;51.146;7.008;2022-11-24T00:28:42;10.43;;;3.20;;
12306;SDS011;6216;51.146;7.008;2022-11-24T00:31:15;13.43;;;3.27;;
12306;SDS011;6216;51.146;7.008;2022-11-24T00:33:45;13.03;;;3.47;;
12306;SDS011;6216;51.146;7.008;2022-11-24T00:36:16;10.33;;;3.10;;
12306;SDS011;6216;51.146;7.008;2022-11-24T00:38:45;12.23;;;3.50;;
12306;SDS011;6216;51.146;7.008;2022-11-24T00:41:13;11.23;;;2.97;;
12306;SDS011;6216;51.146;7.008;2022-11-24T00:43:41;12.73;;;3.57;;
12306;SDS011;6216;51.146;7.008;2022-11-24T00:46:10;13.80;;;3.10;;
12306;SDS011;6216;51.146;7.008;2022-11-24T00:48:38;12.40;;;3.90;;
12306;SDS011;6216;51.146;7.008;2022-11-24T00:51:07;14.23;;;4.00;;
12306;SDS011;6216;51.146;7.008;2022-11-24T00:53:37;11.10;;;3.47;;
12306;SDS011;6216;51.146;7.008;2022-11-24T00:56:05;12.60;;;3.30;;
12306;SDS011;6216;51.146;7.008;2022-11-24T00:58:34;8.90;;;3.10;;
12306;SDS011;6216;51.146;7.008;2022-11-24T01:01:04;9.87;;;2.70;;
12306;SDS011;6216;51.146;7.008;2022-11-24T01:03:34;10.93;;;2.40;;
12306;SDS011;6216;51.146;7.008;2022-11-24T01:06:02;10.27;;;3.23;;
12306;SDS011;6216;51.146;7.008;2022-11-24T01:08:31;8.37;;;2.97;;
12306;SDS011;6216;51.146;7.008;2022-11-24T01:11:11;14.20;;;3.33;;
12306;SDS011;6216;51.146;7.008;2022-11-24T01:13:42;11.70;;;3.67;;
12306;SDS011;6216;51.146;7.008;2022-11-24T01:16:14;8.73;;;2.53;;
12306;SDS011;6216;51.146;7.008;2022-11-24T01:18:44;13.00;;;2.93;;
12306;SDS011;6216;51.146;7.008;2022-11-24T01:21:13;13.00;;;2.97;;
12306;SDS011;6216;51.146;7.008;2022-11-24T01:23:42;9.47;;;2.60;;
12306;SDS011;6216;51.146;7.008;2022-11-24T01:26:12;9.67;;;2.83;;
12306;SDS011;6216;51.146;7.008;2022-11-24T01:28:41;14.93;;;2.87;;
12306;SDS011;6216;51.146;7.008;2022-11-24T01:31:13;13.80;;;2.90;;
12306;SDS011;6216;51.146;7.008;2022-11-24T01:33:42;9.83;;;2.67;;
12306;SDS011;6216;51.146;7.008;2022-11-24T01:36:10;10.37;;;3.07;;
12306;SDS011;6216;51.146;7.008;2022-11-24T01:38:38;12.23;;;3.20;;
12306;SDS011;6216;51.146;7.008;2022-11-24T01:41:09;10.43;;;3.17;;
12306;SDS011;6216;51.146;7.008;2022-11-24T01:43:40;10.63;;;2.83;;
12306;SDS011;6216;51.146;7.008;2022-11-24T01:46:11;14.27;;;3.20;;
12306;SDS011;6216;51.146;7.008;2022-11-24T01:48:44;13.63;;;2.77;;
12306;SDS011;6216;51.146;7.008;2022-11-24T01:51:16;12.23;;;2.40;;
12306;SDS011;6216;51.146;7.008;2022-11-24T01:53:48;12.27;;;2.63;;
12306;SDS011;6216;51.146;7.008;2022-11-24T01:56:22;13.60;;;3.10;;
12306;SDS011;6216;51.146;7.008;2022-11-24T01:58:51;11.13;;;3.00;;
12306;SDS011;6216;51.146;7.008;2022-11-24T02:01:23;10.53;;;2.53;;
12306;SDS011;6216;51.146;7.008;2022-11-24T02:03:51;13.47;;;2.90;;
12306;SDS011;6216;51.146;7.008;2022-11-24T02:06:20;11.13;;;2.77;;
12306;SDS011;6216;51.146;7.008;2022-11-24T02:08:54;14.27;;;3.00;;
12306;SDS011;6216;51.146;7.008;2022-11-24T02:11:29;12.10;;;2.63;;
12306;SDS011;6216;51.146;7.008;2022-11-24T02:14:01;12.70;;;3.17;;
12306;SDS011;6216;51.146;7.008;2022-11-24T02:16:31;15.30;;;3.17;;
12306;SDS011;6216;51.146;7.008;2022-11-24T02:19:02;8.33;;;2.80;;
12306;SDS011;6216;51.146;7.008;2022-11-24T02:21:34;14.77;;;3.00;;
12306;SDS011;6216;51.146;7.008;2022-11-24T02:24:02;9.10;;;2.93;;
12306;SDS011;6216;51.146;7.008;2022-11-24T02:26:41;8.53;;;2.53;;
12306;SDS011;6216;51.146;7.008;2022-11-24T02:29:11;12.03;;;3.27;;
12306;SDS011;6216;51.146;7.008;2022-11-24T02:31:40;14.80;;;3.53;;
12306;SDS011;6216;51.146;7.008;2022-11-24T02:34:12;9.97;;;3.23;;
12306;SDS011;6216;51.146;7.008;2022-11-24T02:36:40;11.20;;;2.73;;
12306;SDS011;6216;51.146;7.008;2022-11-24T02:39:08;11.13;;;2.93;;
12306;SDS011;6216;51.146;7.008;2022-11-24T02:41:38;10.07;;;2.53;;
12306;SDS011;6216;51.146;7.008;2022-11-24T02:44:09;10.40;;;2.60;;
12306;SDS011;6216;51.146;7.008;2022-11-24T02:46:40;10.57;;;2.87;;
12306;SDS011;6216;51.146;7.008;2022-11-24T02:49:08;11.00;;;3.07;;
12306;SDS011;6216;51.146;7.008;2022-11-24T02:51:37;14.80;;;3.03;;
12306;SDS011;6216;51.146;7.008;2022-11-24T02:54:06;13.00;;;2.83;;
12306;SDS011;6216;51.146;7.008;2022-11-24T02:56:34;8.60;;;3.20;;
12306;SDS011;6216;51.146;7.008;2022-11-24T02:59:03;9.73;;;3.17;;
12306;SDS011;6216;51.146;7.008;2022-11-24T03:01:31;14.43;;;2.90;;
12306;SDS011;6216;51.146;7.008;2022-11-24T03:03:59;13.43;;;3.53;;
12306;SDS011;6216;51.146;7.008;2022-11-24T03:06:27;13.80;;;3.20;;
12306;SDS011;6216;51.146;7.008;2022-11-24T03:08:55;13.60;;;2.77;;
12306;SDS011;6216;51.146;7.008;2022-11-24T03:11:23;11.23;;;2.87;;
12306;SDS011;6216;51.146;7.008;2022-11-24T03:13:51;14.67;;;3.07;;
12306;SDS011;6216;51.146;7.008;2022-11-24T03:16:21;16.00;;;3.10;;
12306;SDS011;6216;51.146;7.008;2022-11-24T03:18:49;10.03;;;2.40;;
12306;SDS011;6216;51.146;7.008;2022-11-24T03:21:17;13.43;;;3.43;;
12306;SDS011;6216;51.146;7.008;2022-11-24T03:23:45;11.07;;;3.27;;
12306;SDS011;6216;51.146;7.008;2022-11-24T03:26:14;11.07;;;2.47;;
12306;SDS011;6216;51.146;7.008;2022-11-24T03:28:43;16.00;;;3.63;;
12306;SDS011;6216;51.146;7.008;2022-11-24T03:31:11;11.80;;;2.47;;
12306;SDS011;6216;51.146;7.008;2022-11-24T03:33:41;11.43;;;2.67;;
12306;SDS011;6216;51.146;7.008;2022-11-24T03:36:09;10.17;;;2.77;;
12306;SDS011;6216;51.146;7.008;2022-11-24T03:38:37;8.37;;;2.60;;
12306;SDS011;6216;51.146;7.008;2022-11-24T03:41:05;14.23;;;2.97;;
12306;SDS011;6216;51.146;7.008;2022-11-24T03:43:33;15.00;;;3.10;;
12306;SDS011;6216;51.146;7.008;2022-11-24T03:46:08;9.00;;;2.27;;
12306;SDS011;6216;51.146;7.008;2022-11-24T03:48:37;10.80;;;3.23;;
12306;SDS011;6216;51.146;7.008;2022-11-24T03:51:06;8.20;;;2.37;;
12306;SDS011;6216;51.146;7.008;2022-11-24T03:53:35;12.43;;;2.80;;
12306;SDS011;6216;51.146;7.008;2022-11-24T03:56:03;13.73;;;2.63;;
12306;SDS011;6216;51.146;7.008;2022-11-24T03:58:32;11.60;;;3.13;;
12306;SDS011;6216;51.146;7.008;2022-11-24T04:01:00;14.67;;;2.73;;
12306;SDS011;6216;51.146;7.008;2022-11-24T04:03:28;13.33;;;2.73;;
12306;SDS011;6216;51.146;7.008;2022-11-24T04:06:07;13.90;;;2.63;;
12306;SDS011;6216;51.146;7.008;2022-11-24T04:08:35;12.63;;;2.97;;
12306;SDS011;6216;51.146;7.008;2022-11-24T04:11:03;14.80;;;3.40;;
12306;SDS011;6216;51.146;7.008;2022-11-24T04:13:32;12.80;;;3.23;;
12306;SDS011;6216;51.146;7.008;2022-11-24T04:15:59;10.87;;;3.00;;
12306;SDS011;6216;51.146;7.008;2022-11-24T04:18:31;12.97;;;2.70;;
12306;SDS011;6216;51.146;7.008;2022-11-24T04:20:59;14.73;;;3.50;;
12306;SDS011;6216;51.146;7.008;2022-11-24T04:23:28;13.90;;;3.00;;
12306;SDS011;6216;51.146;7.008;2022-11-24T04:25:56;16.07;;;2.83;;
12306;SDS011;6216;51.146;7.008;2022-11-24T04:28:23;14.10;;;3.17;;
12306;SDS011;6216;51.146;7.008;2022-11-24T04:30:51;15.43;;;3.17;;
12306;SDS011;6216;51.146;7.008;2022-11-24T04:33:19;13.30;;;3.50;;
12306;SDS011;6216;51.146;7.008;2022-11-24T04:35:47;14.33;;;3.03;;
12306;SDS011;6216;51.146;7.008;2022-11-24T04:38:19;11.43;;;3.03;;
12306;SDS011;6216;51.146;7.008;2022-11-24T04:41:08;9.60;;;2.90;;
12306;SDS011;6216;51.146;7.008;2022-11-24T04:43:36;15.03;;;2.93;;
12306;SDS011;6216;51.146;7.008;2022-11-24T04:46:07;10.10;;;3.17;;
12306;SDS011;6216;51.146;7.008;2022-11-24T04:48:36;19.93;;;3.50;;
12306;SDS011;6216;51.146;7.008;2022-11-24T04:51:05;14.90;;;3.37;;
12306;SDS011;6216;51.146;7.008;2022-11-24T04:53:33;10.60;;;2.90;;
12306;SDS011;6216;51.146;7.008;2022-11-24T04:56:02;11.87;;;2.90;;
12306;SDS011;6216;51.146;7.008;2022-11-24T04:58:32;11.00;;;3.10;;
12306;SDS011;6216;51.146;7.008;2022-11-24T05:01:00;9.10;;;2.97;;
12306;SDS011;6216;51.146;7.008;2022-11-24T05:03:28;10.97;;;3.23;;
12306;SDS011;6216;51.146;7.008;2022-11-24T05:05:57;15.17;;;3.47;;
12306;SDS011;6216;51.146;7.008;2022-11-24T05:08:25;13.90;;;2.93;;
12306;SDS011;6216;51.146;7.008;2022-11-24T05:10:53;12.00;;;3.17;;
12306;SDS011;6216;51.146;7.008;2022-11-24T05:13:21;11.93;;;3.23;;
12306;SDS011;6216;51.146;7.008;2022-11-24T05:15:50;11.23;;;2.93;;
12306;SDS011;6216;51.146;7.008;2022-11-24T05:18:18;14.63;;;3.00;;
12306;SDS011;6216;51.146;7.008;2022-11-24T05:20:46;9.07;;;2.63;;
12306;SDS011;6216;51.146;7.008;2022-11-24T05:23:14;17.87;;;3.40;;
12306;SDS011;6216;51.146;7.008;2022-11-24T05:25:42;12.50;;;3.17;;
12306;SDS011;6216;51.146;7.008;2022-11-24T05:28:13;18.37;;;3.33;;
12306;SDS011;6216;51.146;7.008;2022-11-24T05:30:41;15.43;;;2.97;;
12306;SDS011;6216;51.146;7.008;2022-11-24T05:33:11;14.07;;;3.23;;
12306;SDS011;6216;51.146;7.008;2022-11-24T05:35:44;13.00;;;2.47;;
12306;SDS011;6216;51.146;7.008;2022-11-24T05:38:12;16.47;;;3.03;;
12306;SDS011;6216;51.146;7.008;2022-11-24T05:40:40;17.03;;;3.87;;
12306;SDS011;6216;51.146;7.008;2022-11-24T05:43:09;10.60;;;2.90;;
12306;SDS011;6216;51.146;7.008;2022-11-24T05:45:37;14.57;;;3.00;;
12306;SDS011;6216;51.146;7.008;2022-11-24T05:48:06;16.53;;;3.33;;
12306;SDS011;6216;51.146;7.008;2022-11-24T05:50:37;12.10;;;2.80;;
12306;SDS011;6216;51.146;7.008;2022-11-24T05:53:06;21.23;;;3.77;;
12306;SDS011;6216;51.146;7.008;2022-11-24T05:55:35;14.30;;;3.30;;
12306;SDS011;6216;51.146;7.008;2022-11-24T05:58:04;10.57;;;3.03;;
12306;SDS011;6216;51.146;7.008;2022-11-24T06:00:33;10.90;;;2.70;;
12306;SDS011;6216;51.146;7.008;2022-11-24T06:03:02;13.43;;;3.47;;
12306;SDS011;6216;51.146;7.008;2022-11-24T06:05:30;14.07;;;3.20;;
12306;SDS011;6216;51.146;7.008;2022-11-24T06:07:59;14.50;;;3.47;;
12306;SDS011;6216;51.146;7.008;2022-11-24T06:10:27;14.30;;;3.43;;
12306;SDS011;6216;51.146;7.008;2022-11-24T06:12:55;12.37;;;3.13;;
12306;SDS011;6216;51.146;7.008;2022-11-24T06:15:23;15.27;;;3.53;;
12306;SDS011;6216;51.146;7.008;2022-11-24T06:17:52;12.90;;;2.63;;
12306;SDS011;6216;51.146;7.008;2022-11-24T06:20:21;14.23;;;3.40;;
12306;SDS011;6216;51.146;7.008;2022-11-24T06:22:56;18.70;;;3.40;;
12306;SDS011;6216;51.146;7.008;2022-11-24T06:25:26;17.80;;;3.43;;
12306;SDS011;6216;51.146;7.008;2022-11-24T06:27:55;13.00;;;3.03;;
12306;SDS011;6216;51.146;7.008;2022-11-24T06:30:22;11.93;;;3.00;;
12306;SDS011;6216;51.146;7.008;2022-11-24T06:32:53;14.53;;;3.00;;
12306;SDS011;6216;51.146;7.008;2022-11-24T06:35:21;13.17;;;3.07;;
12306;SDS011;6216;51.146;7.008;2022-11-24T06:37:49;15.33;;;3.40;;
12306;SDS011;6216;51.146;7.008;2022-11-24T06:40:17;13.50;;;2.93;;
12306;SDS011;6216;51.146;7.008;2022-11-24T06:42:49;12.77;;;3.20;;
12306;SDS011;6216;51.146;7.008;2022-11-24T06:45:18;15.27;;;2.80;;
12306;SDS011;6216;51.146;7.008;2022-11-24T06:47:46;11.63;;;2.63;;
12306;SDS011;6216;51.146;7.008;2022-11-24T06:50:16;12.63;;;3.20;;
12306;SDS011;6216;51.146;7.008;2022-11-24T06:52:58;6.27;;;2.30;;
12306;SDS011;6216;51.146;7.008;2022-11-24T06:55:34;7.67;;;2.40;;
12306;SDS011;6216;51.146;7.008;2022-11-24T06:58:05;11.40;;;2.60;;
12306;SDS011;6216;51.146;7.008;2022-11-24T07:00:39;5.93;;;2.43;;
12306;SDS011;6216;51.146;7.008;2022-11-24T07:03:09;8.43;;;2.10;;
12306;SDS011;6216;51.146;7.008;2022-11-24T07:05:49;11.03;;;2.90;;
12306;SDS011;6216;51.146;7.008;2022-11-24T07:08:22;7.53;;;1.67;;
12306;SDS011;6216;51.146;7.008;2022-11-24T07:10:50;6.63;;;1.63;;
12306;SDS011;6216;51.146;7.008;2022-11-24T07:13:20;3.57;;;1.30;;
12306;SDS011;6216;51.146;7.008;2022-11-24T07:15:48;3.63;;;1.53;;
12306;SDS011;6216;51.146;7.008;2022-11-24T07:18:16;5.67;;;1.20;;
12306;SDS011;6216;51.146;7.008;2022-11-24T07:20:43;4.73;;;1.13;;
12306;SDS011;6216;51.146;7.008;2022-11-24T07:23:11;2.80;;;0.97;;
12306;SDS011;6216;51.146;7.008;2022-11-24T07:25:39;5.13;;;0.93;;
12306;SDS011;6216;51.146;7.008;2022-11-24T07:28:07;3.93;;;1.17;;
12306;SDS011;6216;51.146;7.008;2022-11-24T07:30:36;5.20;;;1.00;;
12306;SDS011;6216;51.146;7.008;2022-11-24T07:33:04;2.70;;;0.93;;
12306;SDS011;6216;51.146;7.008;2022-11-24T07:35:32;6.53;;;2.10;;
12306;SDS011;6216;51.146;7.008;2022-11-24T07:38:00;4.73;;;1.33;;
12306;SDS011;6216;51.146;7.008;2022-11-24T07:40:28;3.70;;;1.00;;
12306;SDS011;6216;51.146;7.008;2022-11-24T07:42:58;4.70;;;1.10;;
12306;SDS011;6216;51.146;7.008;2022-11-24T07:45:26;3.70;;;0.73;;
12306;SDS011;6216;51.146;7.008;2022-11-24T07:47:56;3.83;;;1.17;;
12306;SDS011;6216;51.146;7.008;2022-11-24T07:50:24;1.97;;;0.70;;
12306;SDS011;6216;51.146;7.008;2022-11-24T07:52:52;5.87;;;1.13;;
12306;SDS011;6216;51.146;7.008;2022-11-24T07:55:20;4.80;;;1.07;;
12306;SDS011;6216;51.146;7.008;2022-11-24T07:57:48;5.30;;;1.13;;
12306;SDS011;6216;51.146;7.008;2022-11-24T08:00:16;2.47;;;0.70;;
12306;SDS011;6216;51.146;7.008;2022-11-24T08:02:44;2.80;;;0.97;;
12306;SDS011;6216;51.146;7.008;2022-11-24T08:05:14;3.67;;;1.07;;
12306;SDS011;6216;51.146;7.008;2022-11-24T08:07:42;3.70;;;1.23;;
12306;SDS011;6216;51.146;7.008;2022-11-24T08:10:09;4.63;;;1.43;;
12306;SDS011;6216;51.146;7.008;2022-11-24T08:12:38;3.97;;;1.30;;
12306;SDS011;6216;51.146;7.008;2022-11-24T08:15:08;5.50;;;1.27;;
12306;SDS011;6216;51.146;7.008;2022-11-24T08:17:36;3.40;;;1.00;;
12306;SDS011;6216;51.146;7.008;2022-11-24T08:20:05;4.23;;;1.00;;
12306;SDS011;6216;51.146;7.008;2022-11-24T08:22:36;4.63;;;1.60;;
12306;SDS011;6216;51.146;7.008;2022-11-24T08:25:04;3.23;;;1.47;;
12306;SDS011;6216;51.146;7.008;2022-11-24T08:27:32;5.50;;;1.70;;
12306;SDS011;6216;51.146;7.008;2022-11-24T08:30:00;3.67;;;1.30;;
12306;SDS011;6216;51.146;7.008;2022-11-24T08:32:28;3.90;;;1.60;;
12306;SDS011;6216;51.146;7.008;2022-11-24T08:34:56;3.60;;;1.70;;
12306;SDS011;6216;51.146;7.008;2022-11-24T08:37:39;3.70;;;1.20;;
12306;SDS011;6216;51.146;7.008;2022-11-24T08:40:08;3.30;;;1.20;;
12306;SDS011;6216;51.146;7.008;2022-11-24T08:42:36;5.90;;;1.30;;
12306;SDS011;6216;51.146;7.008;2022-11-24T08:45:05;1.73;;;1.00;;
12306;SDS011;6216;51.146;7.008;2022-11-24T08:47:49;6.67;;;1.87;;
12306;SDS011;6216;51.146;7.008;2022-11-24T08:50:18;4.10;;;1.40;;
12306;SDS011;6216;51.146;7.008;2022-11-24T08:52:49;4.43;;;1.47;;
12306;SDS011;6216;51.146;7.008;2022-11-24T08:55:18;3.87;;;1.63;;
12306;SDS011;6216;51.146;7.008;2022-11-24T08:57:47;5.57;;;1.60;;
12306;SDS011;6216;51.146;7.008;2022-11-24T09:00:15;4.37;;;1.73;;
12306;SDS011;6216;51.146;7.008;2022-11-24T09:02:54;5.50;;;1.53;;
12306;SDS011;6216;51.146;7.008;2022-11-24T09:05:22;7.83;;;2.33;;
12306;SDS011;6216;51.146;7.008;2022-11-24T09:08:12;6.00;;;1.93;;
12306;SDS011;6216;51.146;7.008;2022-11-24T09:10:40;7.70;;;2.47;;
12306;SDS011;6216;51.146;7.008;2022-11-24T09:13:08;10.37;;;2.27;;
12306;SDS011;6216;51.146;7.008;2022-11-24T09:15:36;7.23;;;2.07;;
12306;SDS011;6216;51.146;7.008;2022-11-24T09:18:03;8.07;;;2.00;;
12306;SDS011;6216;51.146;7.008;2022-11-24T09:20:31;13.37;;;2.33;;
12306;SDS011;6216;51.146;7.008;2022-11-24T09:22:59;6.23;;;2.27;;
12306;SDS011;6216;51.146;7.008;2022-11-24T09:25:28;7.77;;;2.10;;
12306;SDS011;6216;51.146;7.008;2022-11-24T09:27:56;8.40;;;2.13;;
12306;SDS011;6216;51.146;7.008;2022-11-24T09:30:25;9.00;;;2.50;;
12306;SDS011;6216;51.146;7.008;2022-11-24T09:32:53;8.83;;;2.13;;
12306;SDS011;6216;51.146;7.008;2022-11-24T09:35:22;6.67;;;1.87;;
12306;SDS011;6216;51.146;7.008;2022-11-24T09:37:50;10.67;;;2.27;;
12306;SDS011;6216;51.146;7.008;2022-11-24T09:40:18;8.63;;;2.03;;
12306;SDS011;6216;51.146;7.008;2022-11-24T09:42:51;12.43;;;3.13;;
12306;SDS011;6216;51.146;7.008;2022-11-24T09:45:27;8.13;;;2.60;;
12306;SDS011;6216;51.146;7.008;2022-11-24T09:48:26;7.67;;;1.90;;
12306;SDS011;6216;51.146;7.008;2022-11-24T09:50:59;10.33;;;2.33;;
12306;SDS011;6216;51.146;7.008;2022-11-24T09:53:30;7.30;;;2.07;;
12306;SDS011;6216;51.146;7.008;2022-11-24T09:56:03;9.80;;;2.23;;
12306;SDS011;6216;51.146;7.008;2022-11-24T10:01:20;7.07;;;2.00;;
12306;SDS011;6216;51.146;7.008;2022-11-24T10:03:52;6.50;;;1.90;;
12306;SDS011;6216;51.146;7.008;2022-11-24T10:06:22;13.37;;;2.33;;
12306;SDS011;6216;51.146;7.008;2022-11-24T10:12:01;10.13;;;2.00;;
12306;SDS011;6216;51.146;7.008;2022-11-24T10:14:44;12.07;;;2.30;;
12306;SDS011;6216;51.146;7.008;2022-11-24T10:17:26;8.17;;;2.20;;
12306;SDS011;6216;51.146;7.008;2022-11-24T10:20:08;7.37;;;1.73;;
12306;SDS011;6216;51.146;7.008;2022-11-24T10:22:43;8.13;;;2.00;;
12306;SDS011;6216;51.146;7.008;2022-11-24T10:25:19;13.03;;;3.33;;
12306;SDS011;6216;51.146;7.008;2022-11-24T10:27:53;8.50;;;2.13;;
12306;SDS011;6216;51.146;7.008;2022-11-24T10:30:26;9.57;;;1.77;;
12306;SDS011;6216;51.146;7.008;2022-11-24T10:32:55;11.03;;;1.93;;
12306;SDS011;6216;51.146;7.008;2022-11-24T10:35:28;9.73;;;2.30;;
12306;SDS011;6216;51.146;7.008;2022-11-24T10:38:05;10.23;;;2.47;;
12306;SDS011;6216;51.146;7.008;2022-11-24T10:40:43;6.17;;;2.00;;
12306;SDS011;6216;51.146;7.008;2022-11-24T10:43:24;7.50;;;2.00;;
12306;SDS011;6216;51.146;7.008;2022-11-24T10:45:54;6.80;;;2.00;;
12306;SDS011;6216;51.146;7.008;2022-11-24T10:48:36;7.97;;;2.10;;
12306;SDS011;6216;51.146;7.008;2022-11-24T10:51:28;10.13;;;2.27;;
12306;SDS011;6216;51.146;7.008;2022-11-24T10:54:04;9.77;;;2.73;;
12306;SDS011;6216;51.146;7.008;2022-11-24T10:56:38;13.53;;;2.37;;
12306;SDS011;6216;51.146;7.008;2022-11-24T10:59:19;9.10;;;2.03;;
12306;SDS011;6216;51.146;7.008;2022-11-24T11:02:00;11.67;;;3.17;;
12306;SDS011;6216;51.146;7.008;2022-11-24T11:04:30;9.07;;;2.00;;
12306;SDS011;6216;51.146;7.008;2022-11-24T11:07:06;9.37;;;2.30;;
12306;SDS011;6216;51.146;7.008;2022-11-24T11:09:45;8.47;;;2.40;;
12306;SDS011;6216;51.146;7.008;2022-11-24T11:12:20;7.60;;;2.20;;
12306;SDS011;6216;51.146;7.008;2022-11-24T11:15:22;9.97;;;2.67;;
12306;SDS011;6216;51.146;7.008;2022-11-24T11:17:56;9.57;;;2.43;;
12306;SDS011;6216;51.146;7.008;2022-11-24T11:20:27;16.73;;;2.50;;
12306;SDS011;6216;51.146;7.008;2022-11-24T11:22:56;9.50;;;2.47;;
12306;SDS011;6216;51.146;7.008;2022-11-24T11:25:28;13.00;;;2.20;;
12306;SDS011;6216;51.146;7.008;2022-11-24T11:30:57;10.93;;;2.57;;
12306;SDS011;6216;51.146;7.008;2022-11-24T11:33:57;7.77;;;2.07;;
12306;SDS011;6216;51.146;7.008;2022-11-24T11:36:33;14.10;;;2.93;;
12306;SDS011;6216;51.146;7.008;2022-11-24T11:39:05;9.03;;;1.77;;
12306;SDS011;6216;51.146;7.008;2022-11-24T11:41:35;8.67;;;2.27;;
12306;SDS011;6216;51.146;7.008;2022-11-24T11:44:14;9.43;;;2.27;;
12306;SDS011;6216;51.146;7.008;2022-11-24T11:46:55;10.90;;;2.53;;
12306;SDS011;6216;51.146;7.008;2022-11-24T11:49:27;13.27;;;2.57;;
12306;SDS011;6216;51.146;7.008;2022-11-24T11:51:58;9.47;;;2.43;;
12306;SDS011;6216;51.146;7.008;2022-11-24T11:54:47;14.77;;;3.27;;
12306;SDS011;6216;51.146;7.008;2022-11-24T11:57:33;6.77;;;2.10;;
12306;SDS011;6216;51.146;7.008;2022-11-24T12:00:10;11.20;;;2.73;;
12306;SDS011;6216;51.146;7.008;2022-11-24T12:05:57;8.90;;;2.03;;
12306;SDS011;6216;51.146;7.008;2022-11-24T12:08:34;10.03;;;2.40;;
12306;SDS011;6216;51.146;7.008;2022-11-24T12:11:35;8.60;;;2.07;;
12306;SDS011;6216;51.146;7.008;2022-11-24T12:14:11;9.03;;;2.23;;
12306;SDS011;6216;51.146;7.008;2022-11-24T12:16:52;9.37;;;2.47;;
12306;SDS011;6216;51.146;7.008;2022-11-24T12:19:36;7.50;;;2.40;;
12306;SDS011;6216;51.146;7.008;2022-11-24T12:22:20;7.40;;;2.17;;
12306;SDS011;6216;51.146;7.008;2022-11-24T12:24:54;7.33;;;2.20;;
12306;SDS011;6216;51.146;7.008;2022-11-24T12:27:32;7.43;;;2.27;;
12306;SDS011;6216;51.146;7.008;2022-11-24T12:30:09;6.47;;;2.37;;
12306;SDS011;6216;51.146;7.008;2022-11-24T12:32:50;6.83;;;2.30;;
12306;SDS011;6216;51.146;7.008;2022-11-24T12:35:35;12.33;;;2.40;;
12306;SDS011;6216;51.146;7.008;2022-11-24T12:38:10;6.20;;;2.20;;
12306;SDS011;6216;51.146;7.008;2022-11-24T12:40:54;7.77;;;2.20;;
12306;SDS011;6216;51.146;7.008;2022-11-24T12:43:52;9.67;;;2.50;;
12306;SDS011;6216;51.146;7.008;2022-11-24T12:46:25;6.57;;;2.33;;
12306;SDS011;6216;51.146;7.008;2022-11-24T12:49:02;10.37;;;3.17;;
12306;SDS011;6216;51.146;7.008;2022-11-24T12:51:37;5.87;;;2.17;;
12306;SDS011;6216;51.146;7.008;2022-11-24T12:54:11;5.60;;;1.80;;
12306;SDS011;6216;51.146;7.008;2022-11-24T12:56:42;6.43;;;2.20;;
12306;SDS011;6216;51.146;7.008;2022-11-24T12:59:18;11.80;;;2.90;;
12306;SDS011;6216;51.146;7.008;2022-11-24T13:01:58;6.33;;;2.20;;
12306;SDS011;6216;51.146;7.008;2022-11-24T13:04:33;7.63;;;2.17;;
12306;SDS011;6216;51.146;7.008;2022-11-24T13:07:09;7.37;;;2.63;;
12306;SDS011;6216;51.146;7.008;2022-11-24T13:12:53;8.10;;;2.73;;
12306;SDS011;6216;51.146;7.008;2022-11-24T13:15:22;10.43;;;2.50;;
12306;SDS011;6216;51.146;7.008;2022-11-24T13:18:39;5.73;;;2.17;;
12306;SDS011;6216;51.146;7.008;2022-11-24T13:30:04;8.30;;;2.37;;
12306;SDS011;6216;51.146;7.008;2022-11-24T13:33:17;7.50;;;2.40;;
12306;SDS011;6216;51.146;7.008;2022-11-24T13:38:56;17.83;;;3.37;;
12306;SDS011;6216;51.146;7.008;2022-11-24T13:44:43;10.80;;;2.70;;
12306;SDS011;6216;51.146;7.008;2022-11-24T13:47:30;7.60;;;2.57;;
12306;SDS011;6216;51.146;7.008;2022-11-24T13:50:05;6.80;;;2.40;;
12306;SDS011;6216;51.146;7.008;2022-11-24T13:52:39;10.73;;;2.50;;
12306;SDS011;6216;51.146;7.008;2022-11-24T13:58:25;14.43;;;3.17;;
12306;SDS011;6216;51.146;7.008;2022-11-24T14:01:13;8.20;;;2.67;;
12306;SDS011;6216;51.146;7.008;2022-11-24T14:03:57;13.50;;;2.73;;
12306;SDS011;6216;51.146;7.008;2022-11-24T14:06:59;9.73;;;2.47;;
12306;SDS011;6216;51.146;7.008;2022-11-24T14:09:39;9.57;;;2.80;;
12306;SDS011;6216;51.146;7.008;2022-11-24T14:12:12;10.30;;;3.00;;
12306;SDS011;6216;51.146;7.008;2022-11-24T14:14:42;11.87;;;2.43;;
12306;SDS011;6216;51.146;7.008;2022-11-24T14:17:17;9.87;;;2.23;;
12306;SDS011;6216;51.146;7.008;2022-11-24T14:19:49;10.70;;;2.10;;
12306;SDS011;6216;51.146;7.008;2022-11-24T14:22:19;11.17;;;3.00;;
12306;SDS011;6216;51.146;7.008;2022-11-24T14:24:59;7.80;;;2.23;;
12306;SDS011;6216;51.146;7.008;2022-11-24T14:27:29;8.33;;;2.33;;
12306;SDS011;6216;51.146;7.008;2022-11-24T14:30:01;5.93;;;2.30;;
12306;SDS011;6216;51.146;7.008;2022-11-24T14:32:30;12.37;;;2.73;;
12306;SDS011;6216;51.146;7.008;2022-11-24T14:34:59;12.07;;;2.87;;
12306;SDS011;6216;51.146;7.008;2022-11-24T14:37:28;8.60;;;2.40;;
12306;SDS011;6216;51.146;7.008;2022-11-24T14:39:57;13.40;;;2.33;;
12306;SDS011;6216;51.146;7.008;2022-11-24T14:42:25;8.20;;;2.80;;
12306;SDS011;6216;51.146;7.008;2022-11-24T14:44:54;9.17;;;2.80;;
12306;SDS011;6216;51.146;7.008;2022-11-24T14:47:26;9.10;;;2.50;;
12306;SDS011;6216;51.146;7.008;2022-11-24T14:50:05;8.80;;;2.43;;
12306;SDS011;6216;51.146;7.008;2022-11-24T14:52:35;9.83;;;2.40;;
12306;SDS011;6216;51.146;7.008;2022-11-24T14:55:21;9.83;;;2.60;;
12306;SDS011;6216;51.146;7.008;2022-11-24T14:57:51;9.40;;;2.37;;
12306;SDS011;6216;51.146;7.008;2022-11-24T15:03:37;8.30;;;2.37;;
12306;SDS011;6216;51.146;7.008;2022-11-24T15:06:12;10.30;;;2.93;;
12306;SDS011;6216;51.146;7.008;2022-11-24T15:08:44;8.60;;;2.50;;
12306;SDS011;6216;51.146;7.008;2022-11-24T15:11:13;11.30;;;3.13;;
12306;SDS011;6216;51.146;7.008;2022-11-24T15:13:49;8.13;;;2.83;;
12306;SDS011;6216;51.146;7.008;2022-11-24T15:16:20;11.03;;;2.83;;
12306;SDS011;6216;51.146;7.008;2022-11-24T15:18:55;10.37;;;3.13;;
12306;SDS011;6216;51.146;7.008;2022-11-24T15:21:32;13.60;;;3.17;;
12306;SDS011;6216;51.146;7.008;2022-11-24T15:24:05;7.23;;;2.37;;
12306;SDS011;6216;51.146;7.008;2022-11-24T15:26:41;7.10;;;2.60;;
12306;SDS011;6216;51.146;7.008;2022-11-24T15:29:10;11.33;;;3.20;;
12306;SDS011;6216;51.146;7.008;2022-11-24T15:31:38;8.43;;;2.67;;
12306;SDS011;6216;51.146;7.008;2022-11-24T15:34:12;8.40;;;2.60;;
12306;SDS011;6216;51.146;7.008;2022-11-24T15:36:42;7.97;;;2.63;;
12306;SDS011;6216;51.146;7.008;2022-11-24T15:39:09;11.67;;;3.10;;
12306;SDS011;6216;51.146;7.008;2022-11-24T15:41:39;13.27;;;3.20;;
12306;SDS011;6216;51.146;7.008;2022-11-24T15:44:08;11.37;;;3.20;;
12306;SDS011;6216;51.146;7.008;2022-11-24T15:46:36;12.90;;;3.67;;
12306;SDS011;6216;51.146;7.008;2022-11-24T15:49:05;16.70;;;3.70;;
12306;SDS011;6216;51.146;7.008;2022-11-24T15:51:33;12.37;;;3.20;;
12306;SDS011;6216;51.146;7.008;2022-11-24T15:54:03;16.97;;;3.57;;
12306;SDS011;6216;51.146;7.008;2022-11-24T15:56:33;8.57;;;2.47;;
12306;SDS011;6216;51.146;7.008;2022-11-24T15:59:02;11.73;;;3.20;;